Time;durP1;ratioP1;P1;durP2;ratioP2;P2;SDS_P1;SDS_P2;PMS_P1;PMS_P2;Temp;Humidity;BMP_temperature;BMP_pressure;BME280_temperature;BME280_humidity;BME280_pressure;Samples;Min_cycle;Max_cycle;Signal;HPM_P1;HPM_P2
2023/08/23 00:00:01;;;;;;;;;;;;;;;20.50;nan;100680.28;4976541;28;19914;-82
2023/08/23 00:02:26;;;;;;;;;;;;;;;20.49;nan;100684.00;4988250;28;20001;-82
2023/08/23 00:04:52;;;;;;;;;;;;;;;20.47;nan;100669.13;4974617;28;19961;-82
2023/08/23 00:07:17;;;;;;;;;;;;;;;20.40;nan;100679.91;4968768;28;20540;-81
2023/08/23 00:09:42;;;;;;;;;;;;;;;20.36;nan;100678.72;4975860;28;19918;-81
2023/08/23 00:12:07;;;;;;;;;;;;;;;20.30;nan;100676.84;4975683;28;19914;-82
2023/08/23 00:14:32;;;;;;;;;;;;;;;20.28;nan;100686.97;4974929;28;19921;-82
2023/08/23 00:16:58;;;;;;;;;;;;;;;20.25;nan;100679.34;4969512;28;20005;-81
2023/08/23 00:19:23;;;;;;;;;;;;;;;20.27;nan;100690.72;4972368;28;19914;-82
2023/08/23 00:21:48;;;;;;;;;;;;;;;20.27;nan;100685.34;4960037;28;19921;-81
2023/08/23 00:24:13;;;;;;;;;;;;;;;;;;4976277;28;19914;-81
2023/08/23 00:26:38;;;;;;;;;;;;;;;20.20;nan;100680.00;4972896;28;20448;-81
2023/08/23 00:29:04;;;;;;;;;;;;;;;20.18;nan;100683.91;4968608;28;19914;-81
2023/08/23 00:31:29;;;;;;;;;;;;;;;20.18;nan;100675.88;4969816;28;20387;-81
2023/08/23 00:33:54;;;;;;;;;;;;;;;20.18;nan;100671.31;4967181;28;19921;-81
2023/08/23 00:36:19;;;;;;;;;;;;;;;20.14;nan;100680.81;4972984;28;19925;-82
2023/08/23 00:38:44;;;;;;;;;;;;;;;20.11;nan;100676.69;4969911;28;20009;-81
2023/08/23 00:41:10;;;;;;;;;;;;;;;20.09;nan;100670.75;4956980;28;19918;-81
2023/08/23 00:43:35;;;;;;;;;;;;;;;20.08;nan;100666.38;4964049;28;19914;-81
2023/08/23 00:46:01;;;;;;;;;;;;;;;20.07;nan;100664.75;4967066;28;19914;-81
2023/08/23 00:48:26;;;;;;;;;;;;;;;20.02;nan;100661.88;4965004;28;19965;-81
2023/08/23 00:50:51;;;;;;;;;;;;;;;20.00;nan;100669.31;4964661;28;19914;-81
2023/08/23 00:53:17;;;;;;;;;;;;;;;19.99;nan;100666.84;4975935;28;20439;-81
2023/08/23 00:55:42;;;;;;;;;;;;;;;19.96;nan;100668.06;4973515;28;19988;-81
2023/08/23 00:58:07;;;;;;;;;;;;;;;19.94;nan;100670.97;4967889;28;19922;-82
2023/08/23 01:00:33;;;;;;;;;;;;;;;19.91;nan;100676.75;4974080;28;19977;-81
2023/08/23 01:02:59;;;;;;;;;;;;;;;;;;4973241;28;20123;-81
2023/08/23 01:05:28;;;;;;;;;;;;;;;19.81;nan;100687.09;4974957;28;20483;-82
2023/08/23 01:08:13;;;;;;;;;;;;;;;19.79;nan;100688.34;4962635;28;19918;-81
2023/08/23 01:10:46;;;;;;;;;;;;;;;19.79;nan;100683.81;4988048;28;20323;-81
2023/08/23 01:13:16;;;;;;;;;;;;;;;19.78;nan;100692.88;4973084;28;19914;-81
2023/08/23 01:15:42;;;;;;;;;;;;;;;19.79;nan;100688.34;4972525;28;19914;-81
2023/08/23 01:18:08;;;;;;;;;;;;;;;19.79;nan;100678.44;4966338;28;20380;-81
2023/08/23 01:20:34;;;;;;;;;;;;;;;19.78;nan;100692.06;4971219;28;20034;-81
2023/08/23 01:23:13;;;;;;;;;;;;;;;19.76;nan;100672.66;4973369;28;19931;-81
2023/08/23 01:25:51;;;;;;;;;;;;;;;19.72;nan;100683.81;4972066;28;20331;-81
2023/08/23 01:28:17;;;;;;;;;;;;;;;19.69;nan;100678.88;4966487;28;19918;-81
2023/08/23 01:30:42;;;;;;;;;;;;;;;19.66;nan;100679.25;4977665;28;19914;-81
2023/08/23 01:33:07;;;;;;;;;;;;;;;19.64;nan;100685.84;4968266;28;19938;-81
2023/08/23 01:35:41;;;;;;;;;;;;;;;19.62;nan;100672.66;4962730;28;19915;-82
2023/08/23 01:38:06;;;;;;;;;;;;;;;19.65;nan;100671.41;4993374;28;19933;-82
2023/08/23 01:40:32;;;;;;;;;;;;;;;19.63;nan;100674.28;4976154;28;20046;-82
2023/08/23 01:42:58;;;;;;;;;;;;;;;19.61;nan;100676.34;4975914;28;19921;-82
2023/08/23 01:45:23;;;;;;;;;;;;;;;19.57;nan;100680.50;4976907;28;19914;-82
2023/08/23 01:47:49;;;;;;;;;;;;;;;19.53;nan;100669.34;4973229;28;19929;-82
2023/08/23 01:50:15;;;;;;;;;;;;;;;19.50;nan;100668.94;4963081;28;20319;-82
2023/08/23 01:52:40;;;;;;;;;;;;;;;19.46;nan;100673.06;4978153;28;20008;-82
2023/08/23 01:55:05;;;;;;;;;;;;;;;19.43;nan;100674.31;4977310;28;19916;-82
2023/08/23 01:57:30;;;;;;;;;;;;;;;19.41;nan;100660.28;4975381;28;19922;-82
2023/08/23 01:59:56;;;;;;;;;;;;;;;19.43;nan;100668.94;4968822;28;19940;-82
2023/08/23 02:02:21;;;;;;;;;;;;;;;19.40;nan;100674.72;4969233;28;19914;-81
2023/08/23 02:04:46;;;;;;;;;;;;;;;;;;4977132;28;19946;-82
2023/08/23 02:07:11;;;;;;;;;;;;;;;19.30;nan;100682.34;4976578;28;19925;-82
2023/08/23 02:09:37;;;;;;;;;;;;;;;;;;4969201;28;19914;-82
2023/08/23 02:12:02;;;;;;;;;;;;;;;19.21;nan;100671.00;4977130;28;20242;-81
2023/08/23 02:14:27;;;;;;;;;;;;;;;19.17;nan;100679.66;4992732;28;19968;-82
2023/08/23 02:16:52;;;;;;;;;;;;;;;19.15;nan;100671.81;4975780;28;20024;-82
2023/08/23 02:19:17;;;;;;;;;;;;;;;19.15;nan;100682.53;4969744;28;19948;-82
2023/08/23 02:21:43;;;;;;;;;;;;;;;19.17;nan;100679.66;4992508;28;19914;-82
2023/08/23 02:24:08;;;;;;;;;;;;;;;19.15;nan;100677.16;4977208;28;19914;-82
2023/08/23 02:26:35;;;;;;;;;;;;;;;19.15;nan;100671.81;4975573;28;19918;-81
2023/08/23 02:29:00;;;;;;;;;;;;;;;19.13;nan;100673.88;4970036;28;20291;-82
2023/08/23 02:31:25;;;;;;;;;;;;;;;19.08;nan;100665.63;4981030;28;19921;-82
2023/08/23 02:33:50;;;;;;;;;;;;;;;19.06;nan;100673.03;4958306;28;20017;-82
2023/08/23 02:36:15;;;;;;;;;;;;;;;19.02;nan;100666.41;4959778;28;19918;-81
2023/08/23 02:38:41;;;;;;;;;;;;;;;18.99;nan;100664.16;4969393;28;20532;-83
2023/08/23 02:41:06;;;;;;;;;;;;;;;18.94;nan;100669.31;4984298;28;19953;-86
2023/08/23 02:43:31;;;;;;;;;;;;;;;18.93;nan;100662.31;4985554;28;19914;-84
2023/08/23 02:45:56;;;;;;;;;;;;;;;18.93;nan;100665.00;4976858;28;20063;-83
2023/08/23 02:48:21;;;;;;;;;;;;;;;;;;4963818;28;19926;-83
2023/08/23 02:50:46;;;;;;;;;;;;;;;18.86;nan;100656.94;4966259;28;20416;-84
2023/08/23 02:53:12;;;;;;;;;;;;;;;18.82;nan;100656.50;4952833;29;19919;-83
2023/08/23 02:55:37;;;;;;;;;;;;;;;18.78;nan;100644.56;4953950;28;20281;-84
2023/08/23 02:58:03;;;;;;;;;;;;;;;18.75;nan;100650.25;4959739;28;19926;-83
2023/08/23 03:00:28;;;;;;;;;;;;;;;18.74;nan;100642.44;4972264;28;19914;-83
2023/08/23 03:02:53;;;;;;;;;;;;;;;18.77;nan;100642.88;4973944;28;19921;-83
2023/08/23 03:05:19;;;;;;;;;;;;;;;18.84;nan;100642.91;4974085;28;19914;-82
2023/08/23 03:07:44;;;;;;;;;;;;;;;18.87;nan;100637.13;4974021;28;19921;-83
2023/08/23 03:10:09;;;;;;;;;;;;;;;18.89;nan;100643.94;4972550;28;19917;-84
2023/08/23 03:12:35;;;;;;;;;;;;;;;18.95;nan;100655.72;4977469;28;20404;-82
2023/08/23 03:15:00;;;;;;;;;;;;;;;19.00;nan;100647.06;4977479;28;20005;-85
2023/08/23 03:17:25;;;;;;;;;;;;;;;19.01;nan;100638.81;4977491;28;19922;-84
2023/08/23 03:19:50;;;;;;;;;;;;;;;;;;4976095;28;19918;-82
2023/08/23 03:22:15;;;;;;;;;;;;;;;19.04;nan;100649.13;4991815;28;19949;-83
2023/08/23 03:24:41;;;;;;;;;;;;;;;19.04;nan;100650.97;4975845;28;20384;-82
2023/08/23 03:27:06;;;;;;;;;;;;;;;19.02;nan;100645.81;4977698;28;19918;-83
2023/08/23 03:29:31;;;;;;;;;;;;;;;19.01;nan;100646.84;4976579;28;19937;-83
2023/08/23 03:31:56;;;;;;;;;;;;;;;19.05;nan;100645.41;4984563;28;19914;-83
2023/08/23 03:34:21;;;;;;;;;;;;;;;19.08;nan;100645.00;4957930;28;19950;-82
2023/08/23 03:36:46;;;;;;;;;;;;;;;19.11;nan;100651.81;4963471;28;19914;-83
2023/08/23 03:39:12;;;;;;;;;;;;;;;19.11;nan;100643.75;4984901;28;20371;-82
2023/08/23 03:41:37;;;;;;;;;;;;;;;19.07;nan;100642.53;4956880;29;19914;-83
2023/08/23 03:44:02;;;;;;;;;;;;;;;19.00;nan;100647.88;4956400;28;19918;-83
2023/08/23 03:46:27;;;;;;;;;;;;;;;18.91;nan;100654.47;4962035;28;19922;-82
2023/08/23 03:48:52;;;;;;;;;;;;;;;18.83;nan;100652.81;4976443;28;19918;-85
2023/08/23 03:51:18;;;;;;;;;;;;;;;18.77;nan;100658.13;4966360;28;19994;-83
2023/08/23 03:53:43;;;;;;;;;;;;;;;18.76;nan;100668.03;4958301;28;19915;-86
2023/08/23 03:56:08;;;;;;;;;;;;;;;18.74;nan;100659.34;4959617;28;19914;-83
2023/08/23 03:58:34;;;;;;;;;;;;;;;18.73;nan;100651.50;4976360;28;19918;-83
2023/08/23 04:00:59;;;;;;;;;;;;;;;18.70;nan;100657.28;4984253;28;20284;-84
2023/08/23 04:03:24;;;;;;;;;;;;;;;18.66;nan;100662.19;4987594;28;19942;-83
2023/08/23 04:05:50;;;;;;;;;;;;;;;18.62;nan;100655.59;4999106;28;19914;-84
2023/08/23 04:08:16;;;;;;;;;;;;;;;18.58;nan;100654.34;4999693;28;19918;-84
2023/08/23 04:10:50;;;;;;;;;;;;;;;18.57;nan;100650.03;4986878;28;19954;-84
2023/08/23 04:13:16;;;;;;;;;;;;;;;18.56;nan;100651.84;4983247;28;19914;-83
2023/08/23 04:15:41;;;;;;;;;;;;;;;18.50;nan;100641.97;4981871;28;20406;-83
2023/08/23 04:18:07;;;;;;;;;;;;;;;18.47;nan;100626.28;4979883;28;19961;-83
2023/08/23 04:20:32;;;;;;;;;;;;;;;18.45;nan;100626.50;4981015;28;19914;-84
2023/08/23 04:22:57;;;;;;;;;;;;;;;18.43;nan;100620.53;4983775;28;19914;-84
2023/08/23 04:25:22;;;;;;;;;;;;;;;18.44;nan;100626.69;4981668;28;20052;-83
2023/08/23 04:27:47;;;;;;;;;;;;;;;18.49;nan;100626.91;4983175;28;20041;-83
2023/08/23 04:30:13;;;;;;;;;;;;;;;18.54;nan;100627.13;4980495;28;20295;-83
2023/08/23 04:32:38;;;;;;;;;;;;;;;;;;4982691;28;19918;-87
2023/08/23 04:35:04;;;;;;;;;;;;;;;18.53;nan;100633.53;4981103;28;19925;-83
2023/08/23 04:37:29;;;;;;;;;;;;;;;;;;4982566;28;19977;-84
2023/08/23 04:39:54;;;;;;;;;;;;;;;18.51;nan;100637.44;4980374;28;19977;-83
2023/08/23 04:42:19;;;;;;;;;;;;;;;18.51;nan;100638.25;4980224;28;20405;-83
2023/08/23 04:44:44;;;;;;;;;;;;;;;;;;4994952;28;19920;-83
2023/08/23 04:47:10;;;;;;;;;;;;;;;;;;4998082;28;19914;-83
2023/08/23 04:49:35;;;;;;;;;;;;;;;18.65;nan;100650.66;4984901;28;19969;-84
2023/08/23 04:52:00;;;;;;;;;;;;;;;18.67;nan;100637.06;4999485;28;19921;-83
2023/08/23 04:54:25;;;;;;;;;;;;;;;18.66;nan;100652.31;4981506;28;19913;-85
2023/08/23 04:56:50;;;;;;;;;;;;;;;18.70;nan;100652.72;4992741;28;19918;-82
2023/08/23 04:59:16;;;;;;;;;;;;;;;18.71;nan;100658.91;4975979;28;20395;-83
2023/08/23 05:01:41;;;;;;;;;;;;;;;18.73;nan;100662.22;4959488;29;19918;-83
2023/08/23 05:04:07;;;;;;;;;;;;;;;18.73;nan;100652.31;4960259;28;19911;-83
2023/08/23 05:06:33;;;;;;;;;;;;;;;18.77;nan;100658.13;4961306;28;19915;-83
2023/08/23 05:08:58;;;;;;;;;;;;;;;18.81;nan;100662.91;4967578;28;19997;-84
2023/08/23 05:11:23;;;;;;;;;;;;;;;18.86;nan;100667.66;4957979;28;19914;-83
2023/08/23 05:13:48;;;;;;;;;;;;;;;18.91;nan;100659.00;4958537;29;19922;-83
2023/08/23 05:16:13;;;;;;;;;;;;;;;18.98;nan;100662.53;4960140;28;19950;-83
2023/08/23 05:18:39;;;;;;;;;;;;;;;19.05;nan;100666.84;4977622;28;19918;-84
2023/08/23 05:21:04;;;;;;;;;;;;;;;19.20;nan;100663.97;4978187;28;20399;-83
2023/08/23 05:23:29;;;;;;;;;;;;;;;19.36;nan;100669.97;4977956;28;19938;-83
2023/08/23 05:25:55;;;;;;;;;;;;;;;19.46;nan;100668.53;4985111;28;20396;-86
2023/08/23 05:28:20;;;;;;;;;;;;;;;;;;4981079;28;19925;-85
2023/08/23 05:30:45;;;;;;;;;;;;;;;19.59;nan;100678.41;4969667;28;19921;-85
2023/08/23 05:33:11;;;;;;;;;;;;;;;19.68;nan;100671.84;4967804;28;19914;-83
2023/08/23 05:35:36;;;;;;;;;;;;;;;19.85;nan;100822.50;4967531;28;19926;-83
2023/08/23 05:38:01;;;;;;;;;;;;;;;20.08;nan;100670.94;4978554;28;19929;-85
2023/08/23 05:40:27;;;;;;;;;;;;;;;20.33;nan;100684.47;4984421;28;19954;-83
2023/08/23 05:42:52;;;;;;;;;;;;;;;20.58;nan;100688.13;4989976;28;19940;-84
2023/08/23 05:45:17;;;;;;;;;;;;;;;20.85;nan;100693.38;5002702;28;19921;-85
2023/08/23 05:47:42;;;;;;;;;;;;;;;21.04;nan;100680.84;4991988;28;19929;-83
2023/08/23 05:50:08;;;;;;;;;;;;;;;21.28;nan;100687.28;4982027;28;19921;-84
2023/08/23 05:52:33;;;;;;;;;;;;;;;21.52;nan;100692.94;4982730;28;20329;-84
2023/08/23 05:54:58;;;;;;;;;;;;;;;21.69;nan;100701.28;4981333;28;19945;-85
2023/08/23 05:57:23;;;;;;;;;;;;;;;21.90;nan;100710.81;4980964;28;19925;-86
2023/08/23 05:59:49;;;;;;;;;;;;;;;22.16;nan;100710.53;4975335;28;19914;-84
2023/08/23 06:02:14;;;;;;;;;;;;;;;22.51;nan;100706.47;4960306;28;19914;-84
2023/08/23 06:04:39;;;;;;;;;;;;;;;;;;4960788;28;20027;-84
2023/08/23 06:07:05;;;;;;;;;;;;;;;22.96;nan;100698.78;4962217;28;20295;-84
2023/08/23 06:09:32;;;;;;;;;;;;;;;23.14;nan;100710.59;4977764;28;19914;-84
2023/08/23 06:11:58;;;;;;;;;;;;;;;23.37;nan;100709.84;4992953;28;19937;-84
2023/08/23 06:14:24;;;;;;;;;;;;;;;23.66;nan;100700.00;4975985;28;19917;-84
2023/08/23 06:16:50;;;;;;;;;;;;;;;23.97;nan;100714.25;4975982;28;19925;-84
2023/08/23 06:19:15;;;;;;;;;;;;;;;24.11;nan;100716.44;4979231;28;20336;-85
2023/08/23 06:21:41;;;;;;;;;;;;;;;24.24;nan;100736.16;4994727;28;19957;-84
2023/08/23 06:24:06;;;;;;;;;;;;;;;24.44;nan;100730.41;4978783;28;19924;-85
2023/08/23 06:26:32;;;;;;;;;;;;;;;24.60;nan;100729.69;4995641;28;20273;-84
2023/08/23 06:28:57;;;;;;;;;;;;;;;;;;4994399;28;20283;-86
2023/08/23 06:31:22;;;;;;;;;;;;;;;24.49;nan;100728.63;4962546;28;20296;-85
2023/08/23 06:33:47;;;;;;;;;;;;;;;24.47;nan;100727.22;4955500;28;19920;-85
2023/08/23 06:36:12;;;;;;;;;;;;;;;24.31;nan;100732.31;4961687;28;20159;-85
2023/08/23 06:38:38;;;;;;;;;;;;;;;24.37;nan;100736.75;4928910;28;1328312;-86
2023/08/23 06:41:03;;;;;;;;;;;;;;;;;;4995177;28;19937;-85
2023/08/23 06:43:28;;;;;;;;;;;;;;;24.13;nan;100745.94;4977992;28;19921;-88
2023/08/23 06:45:53;;;;;;;;;;;;;;;24.06;nan;100735.25;4999350;28;19980;-85
2023/08/23 06:48:19;;;;;;;;;;;;;;;23.98;nan;100742.88;4978050;28;19918;-84
2023/08/23 06:50:44;;;;;;;;;;;;;;;24.11;nan;100732.66;4975638;28;19977;-85
2023/08/23 06:53:09;;;;;;;;;;;;;;;24.35;nan;100732.63;4981533;28;19914;-84
2023/08/23 06:55:39;;;;;;;;;;;;;;;24.69;nan;100747.13;4997592;28;19936;-85
2023/08/23 06:58:04;;;;;;;;;;;;;;;24.88;nan;100746.97;4974973;28;19922;-87
2023/08/23 07:00:29;;;;;;;;;;;;;;;24.93;nan;100747.06;4976763;28;19969;-85
2023/08/23 07:02:55;;;;;;;;;;;;;;;25.16;nan;100744.25;4981149;28;19946;-85
2023/08/23 07:05:20;;;;;;;;;;;;;;;25.31;nan;100745.59;4993939;28;19957;-86
2023/08/23 07:07:45;;;;;;;;;;;;;;;25.73;nan;100748.75;4988073;28;19918;-85
2023/08/23 07:10:10;;;;;;;;;;;;;;;26.01;nan;100749.75;4980606;28;19965;-85
2023/08/23 07:12:35;;;;;;;;;;;;;;;26.12;nan;100756.13;4980285;28;19920;-85
2023/08/23 07:15:00;;;;;;;;;;;;;;;26.43;nan;100752.78;4981130;28;20372;-84
2023/08/23 07:17:26;;;;;;;;;;;;;;;26.73;nan;100750.69;4980781;28;19922;-84
2023/08/23 07:19:51;;;;;;;;;;;;;;;27.18;nan;100727.81;4962913;28;19915;-83
2023/08/23 07:22:17;;;;;;;;;;;;;;;27.32;nan;100754.31;4962282;28;19914;-83
2023/08/23 07:24:42;;;;;;;;;;;;;;;27.63;nan;100754.59;4960631;28;19949;-83
2023/08/23 07:27:07;;;;;;;;;;;;;;;28.02;nan;100769.81;4969035;28;19918;-83
2023/08/23 07:29:35;;;;;;;;;;;;;;;28.19;nan;100764.22;4975349;28;20493;-83
2023/08/23 07:32:00;;;;;;;;;;;;;;;28.34;nan;100764.28;4967995;28;20291;-85
2023/08/23 07:34:26;;;;;;;;;;;;;;;28.56;nan;100761.44;4964324;28;19923;-87
2023/08/23 07:36:52;;;;;;;;;;;;;;;28.33;nan;100758.03;4982525;28;19914;-86
2023/08/23 07:39:17;;;;;;;;;;;;;;;28.11;nan;100766.34;4986971;28;20348;-85
2023/08/23 07:41:42;;;;;;;;;;;;;;;28.03;nan;100768.72;4960343;28;19977;-86
2023/08/23 07:44:08;;;;;;;;;;;;;;;28.29;nan;100756.94;4972402;28;19913;-87
2023/08/23 07:46:33;;;;;;;;;;;;;;;28.64;nan;100771.78;4980419;28;20287;-86
2023/08/23 07:49:01;;;;;;;;;;;;;;;28.89;nan;100760.19;4968261;28;19921;-85
2023/08/23 07:51:26;;;;;;;;;;;;;;;29.38;nan;100773.34;4963420;28;19914;-84
2023/08/23 07:53:58;;;;;;;;;;;;;;;29.43;nan;100776.06;4964705;28;20005;-84
2023/08/23 07:56:23;;;;;;;;;;;;;;;28.97;nan;100777.91;4971782;28;20288;-84
2023/08/23 07:58:49;;;;;;;;;;;;;;;29.09;nan;100774.97;4981663;28;19922;-86
2023/08/23 08:01:14;;;;;;;;;;;;;;;29.39;nan;100768.72;4987766;28;20013;-85
2023/08/23 08:03:40;;;;;;;;;;;;;;;29.34;nan;100783.19;4965965;28;19974;-86
2023/08/23 08:06:06;;;;;;;;;;;;;;;29.30;nan;100781.25;4966084;28;19918;-85
2023/08/23 08:08:32;;;;;;;;;;;;;;;29.57;nan;100783.72;4977463;28;20363;-86
2023/08/23 08:11:00;;;;;;;;;;;;;;;29.21;nan;100784.50;4977547;28;19938;-86
2023/08/23 08:13:25;;;;;;;;;;;;;;;29.61;nan;100776.63;4999186;28;19926;-84
2023/08/23 08:15:51;;;;;;;;;;;;;;;30.04;nan;100790.81;4975386;28;20038;-83
2023/08/23 08:18:17;;;;;;;;;;;;;;;29.96;nan;100784.00;4967522;28;19981;-83
2023/08/23 08:20:42;;;;;;;;;;;;;;;30.46;nan;100786.88;4994592;28;19921;-85
2023/08/23 08:23:07;;;;;;;;;;;;;;;31.11;nan;100784.16;4978694;28;20025;-85
2023/08/23 08:25:36;;;;;;;;;;;;;;;31.75;nan;100793.25;4970513;28;19942;-85
2023/08/23 08:28:01;;;;;;;;;;;;;;;31.88;nan;100799.97;4961996;28;19981;-84
2023/08/23 08:30:26;;;;;;;;;;;;;;;31.63;nan;100788.16;4964811;28;19960;-85
2023/08/23 08:32:52;;;;;;;;;;;;;;;31.78;nan;100789.13;4972385;28;19981;-87
2023/08/23 08:35:18;;;;;;;;;;;;;;;32.06;nan;100790.22;4972138;28;20285;-83
2023/08/23 08:37:46;;;;;;;;;;;;;;;32.22;nan;100788.97;4957258;28;20392;-86
2023/08/23 08:40:11;;;;;;;;;;;;;;;32.54;nan;100795.75;4956118;28;20266;-85
2023/08/23 08:42:37;;;;;;;;;;;;;;;32.76;nan;100798.75;4960814;28;19921;-85
2023/08/23 08:45:03;;;;;;;;;;;;;;;32.72;nan;100792.22;4979749;28;19918;-86
2023/08/23 08:47:28;;;;;;;;;;;;;;;32.90;nan;100789.81;4957428;28;19926;-85
2023/08/23 08:49:54;;;;;;;;;;;;;;;33.19;nan;100795.16;4958327;28;19915;-86
2023/08/23 08:52:20;;;;;;;;;;;;;;;32.78;nan;100785.56;4975678;28;19929;-86
2023/08/23 08:54:47;;;;;;;;;;;;;;;32.92;nan;100790.34;4974476;28;19915;-85
2023/08/23 08:57:13;;;;;;;;;;;;;;;33.27;nan;100779.97;4972079;28;20369;-85
2023/08/23 08:59:39;;;;;;;;;;;;;;;33.38;nan;100782.25;4979166;28;20036;-86
2023/08/23 09:02:06;;;;;;;;;;;;;;;34.02;nan;100785.28;4995379;28;19914;-84
2023/08/23 09:04:31;;;;;;;;;;;;;;;34.62;nan;100780.84;4968076;28;20339;-84
2023/08/23 09:06:59;;;;;;;;;;;;;;;34.89;nan;100779.97;4981050;28;19914;-84
2023/08/23 09:09:25;;;;;;;;;;;;;;;35.25;nan;100782.72;4978741;28;20001;-84
2023/08/23 09:11:50;;;;;;;;;;;;;;;35.47;nan;100792.91;4994813;28;19952;-84
2023/08/23 09:14:16;;;;;;;;;;;;;;;35.66;nan;100791.91;4967234;28;19929;-84
2023/08/23 09:16:46;;;;;;;;;;;;;;;35.98;nan;100792.75;4980403;28;19914;-84
2023/08/23 09:19:15;;;;;;;;;;;;;;;36.45;nan;100791.16;4964946;28;20323;-84
2023/08/23 09:21:44;;;;;;;;;;;;;;;36.83;nan;100790.63;4971233;28;19969;-84
2023/08/23 09:24:10;;;;;;;;;;;;;;;37.17;nan;100784.31;4976056;28;19929;-84
2023/08/23 09:26:36;;;;;;;;;;;;;;;37.19;nan;100792.28;4971027;28;20187;-85
2023/08/23 09:29:02;;;;;;;;;;;;;;;37.26;nan;100778.81;4962848;28;19942;-84
2023/08/23 09:31:27;;;;;;;;;;;;;;;37.59;nan;100765.31;4973041;28;20169;-84
2023/08/23 09:33:53;;;;;;;;;;;;;;;38.02;nan;100771.84;4987467;28;19925;-84
2023/08/23 09:36:29;;;;;;;;;;;;;;;38.09;nan;100760.25;4966100;28;19914;-84
2023/08/23 09:39:00;;;;;;;;;;;;;;;37.98;nan;100766.13;4974609;28;19950;-84
2023/08/23 09:41:26;;;;;;;;;;;;;;;37.57;nan;100764.81;4959533;28;20291;-84
2023/08/23 09:43:56;;;;;;;;;;;;;;;37.78;nan;100770.44;4961910;28;19915;-84
2023/08/23 09:46:27;;;;;;;;;;;;;;;38.17;nan;100764.94;4959049;28;19938;-84
2023/08/23 09:48:56;;;;;;;;;;;;;;;38.24;nan;100760.50;4979193;28;20085;-84
2023/08/23 09:51:22;;;;;;;;;;;;;;;37.97;nan;100760.94;4976554;28;19973;-83
2023/08/23 09:53:51;;;;;;;;;;;;;;;38.40;nan;100757.16;4979828;28;19941;-83
2023/08/23 09:56:17;;;;;;;;;;;;;;;38.59;nan;100753.97;4982703;28;19914;-84
2023/08/23 09:58:43;;;;;;;;;;;;;;;38.53;nan;100755.34;4973082;28;20417;-85
2023/08/23 10:01:08;;;;;;;;;;;;;;;38.86;nan;100750.69;4975037;28;19922;-85
2023/08/23 10:03:39;;;;;;;;;;;;;;;39.41;nan;100750.72;4975722;28;19977;-85
2023/08/23 10:06:05;;;;;;;;;;;;;;;39.69;nan;100753.66;4973049;28;20998;-84
2023/08/23 10:08:33;;;;;;;;;;;;;;;40.19;nan;100754.50;4961486;28;19914;-84
2023/08/23 10:10:59;;;;;;;;;;;;;;;39.49;nan;100753.38;4987950;28;19945;-85
2023/08/23 10:13:24;;;;;;;;;;;;;;;39.80;nan;100763.16;4994559;28;19921;-85
2023/08/23 10:15:56;;;;;;;;;;;;;;;38.78;nan;100759.03;4993215;28;20088;-85
2023/08/23 10:18:25;;;;;;;;;;;;;;;37.88;nan;100766.50;4991013;28;19969;-85
2023/08/23 10:20:51;;;;;;;;;;;;;;;38.35;nan;100765.66;4974027;28;19979;-85
2023/08/23 10:23:18;;;;;;;;;;;;;;;39.46;nan;100761.56;4966258;28;19942;-85
2023/08/23 10:25:45;;;;;;;;;;;;;;;40.08;nan;100760.50;4974155;28;19914;-84
2023/08/23 10:28:16;;;;;;;;;;;;;;;40.00;nan;100760.63;4966829;28;19914;-84
2023/08/23 10:30:42;;;;;;;;;;;;;;;40.51;nan;100764.66;4966319;28;20004;-84
2023/08/23 10:33:08;;;;;;;;;;;;;;;41.27;nan;100755.78;4949350;28;19961;-85
2023/08/23 10:35:35;;;;;;;;;;;;;;;41.46;nan;100750.34;4975160;28;19965;-85
2023/08/23 10:38:03;;;;;;;;;;;;;;;41.61;nan;100748.78;4971448;28;19949;-84
2023/08/23 10:40:37;;;;;;;;;;;;;;;41.33;nan;100754.34;4995237;28;19933;-85
2023/08/23 10:43:04;;;;;;;;;;;;;;;41.17;nan;100751.56;4992972;28;19918;-84
2023/08/23 10:45:52;;;;;;;;;;;;;;;40.63;nan;100755.50;4992546;28;20069;-83
2023/08/23 10:48:26;;;;;;;;;;;;;;;39.63;nan;100746.72;4993391;28;19914;-83
2023/08/23 10:50:53;;;;;;;;;;;;;;;39.97;nan;100747.47;4993484;28;20000;-83
2023/08/23 10:53:21;;;;;;;;;;;;;;;40.05;nan;100738.25;4964091;28;19914;-83
2023/08/23 10:55:47;;;;;;;;;;;;;;;40.60;nan;100750.66;4979832;28;19942;-83
2023/08/23 10:58:13;;;;;;;;;;;;;;;40.84;nan;100740.69;4997333;28;19966;-83
2023/08/23 11:00:41;;;;;;;;;;;;;;;41.14;nan;100752.25;4997085;28;19914;-83
2023/08/23 11:03:08;;;;;;;;;;;;;;;41.29;nan;100743.16;4982084;28;19914;-83
2023/08/23 11:05:36;;;;;;;;;;;;;;;41.51;nan;100744.53;4979595;28;20316;-83
2023/08/23 11:08:05;;;;;;;;;;;;;;;41.61;nan;100742.41;4980038;28;19918;-83
2023/08/23 11:10:31;;;;;;;;;;;;;;;40.90;nan;100747.59;4971008;28;19919;-83
2023/08/23 11:12:56;;;;;;;;;;;;;;;41.31;nan;100745.56;4962864;28;20021;-83
2023/08/23 11:15:22;;;;;;;;;;;;;;;40.48;nan;100754.28;4962123;28;19922;-82
2023/08/23 11:17:48;;;;;;;;;;;;;;;40.60;nan;100744.31;4957792;28;19950;-83
2023/08/23 11:20:13;;;;;;;;;;;;;;;41.34;nan;100747.66;4957683;28;19950;-83
2023/08/23 11:22:39;;;;;;;;;;;;;;;41.27;nan;100745.50;4965114;28;19917;-83
2023/08/23 11:25:04;;;;;;;;;;;;;;;41.42;nan;100738.34;4986341;28;19914;-83
2023/08/23 11:27:30;;;;;;;;;;;;;;;42.06;nan;100735.63;4993751;28;19920;-83
2023/08/23 11:29:59;;;;;;;;;;;;;;;42.21;nan;100743.91;4974624;28;19921;-83
2023/08/23 11:32:24;;;;;;;;;;;;;;;41.18;nan;100753.97;4954534;28;19949;-86
2023/08/23 11:34:50;;;;;;;;;;;;;;;41.03;nan;100740.84;4957900;29;20361;-84
2023/08/23 11:37:15;;;;;;;;;;;;;;;41.80;nan;100745.28;4961474;28;19973;-85
2023/08/23 11:39:40;;;;;;;;;;;;;;;42.04;nan;100732.38;4971584;28;19918;-84
2023/08/23 11:42:06;;;;;;;;;;;;;;;42.33;nan;100742.19;4966339;28;20164;-86
2023/08/23 11:44:34;;;;;;;;;;;;;;;42.24;nan;100742.41;4972881;28;19921;-83
2023/08/23 11:47:02;;;;;;;;;;;;;;;42.57;nan;100746.69;4995100;28;19921;-83
2023/08/23 11:49:28;;;;;;;;;;;;;;;43.03;nan;100758.81;4985802;28;20060;-83
2023/08/23 11:51:53;;;;;;;;;;;;;;;41.65;nan;100751.66;4975360;28;20361;-83
2023/08/23 11:54:22;;;;;;;;;;;;;;;40.89;nan;100748.75;4976833;28;19918;-84
2023/08/23 11:56:47;;;;;;;;;;;;;;;40.52;nan;100744.13;4978620;28;19918;-83
2023/08/23 11:59:13;;;;;;;;;;;;;;;40.17;nan;100743.78;4986375;28;20331;-83
2023/08/23 12:01:44;;;;;;;;;;;;;;;38.52;nan;100737.13;4978793;28;19914;-83
2023/08/23 12:04:10;;;;;;;;;;;;;;;38.46;nan;100731.00;4976568;28;19914;-83
2023/08/23 12:06:36;;;;;;;;;;;;;;;38.01;nan;100723.28;4978694;28;19921;-83
2023/08/23 12:09:01;;;;;;;;;;;;;;;37.75;nan;100721.41;4976558;28;19918;-83
2023/08/23 12:11:27;;;;;;;;;;;;;;;37.36;nan;100720.53;4994198;28;20372;-83
2023/08/23 12:13:52;;;;;;;;;;;;;;;36.33;nan;100711.91;4963962;28;19929;-83
2023/08/23 12:16:18;;;;;;;;;;;;;;;35.76;nan;100725.63;4977514;28;19914;-83
2023/08/23 12:18:46;;;;;;;;;;;;;;;35.72;nan;100717.19;4994263;28;19918;-83
2023/08/23 12:21:11;;;;;;;;;;;;;;;35.00;nan;100717.34;4978986;28;19937;-83
2023/08/23 12:23:37;;;;;;;;;;;;;;;34.84;nan;100711.41;4979128;28;20073;-83
2023/08/23 12:26:02;;;;;;;;;;;;;;;34.43;nan;100707.63;4979852;28;19925;-85
2023/08/23 12:28:28;;;;;;;;;;;;;;;34.22;nan;100718.22;4970682;28;19914;-85
2023/08/23 12:30:53;;;;;;;;;;;;;;;33.60;nan;100718.56;4986888;28;19921;-86
2023/08/23 12:33:18;;;;;;;;;;;;;;;33.58;nan;100711.75;4981410;28;19928;-85
2023/08/23 12:35:44;;;;;;;;;;;;;;;33.26;nan;100707.91;4980971;28;19914;-85
2023/08/23 12:38:09;;;;;;;;;;;;;;;33.32;nan;100708.63;4980200;28;20361;-84
2023/08/23 12:40:35;;;;;;;;;;;;;;;33.32;nan;100706.69;4981979;28;19914;-84
2023/08/23 12:43:00;;;;;;;;;;;;;;;32.60;nan;100712.44;4977140;28;20177;-86
2023/08/23 12:45:25;;;;;;;;;;;;;;;32.67;nan;100712.88;4978821;28;20280;-85
2023/08/23 12:47:51;;;;;;;;;;;;;;;32.16;nan;100713.53;4959446;28;19914;-84
2023/08/23 12:50:17;;;;;;;;;;;;;;;31.89;nan;100720.38;4974297;28;19969;-85
2023/08/23 12:52:42;;;;;;;;;;;;;;;31.62;nan;100720.91;4973803;28;19995;-84
2023/08/23 12:55:08;;;;;;;;;;;;;;;31.78;nan;100713.38;4978615;28;19965;-85
2023/08/23 12:57:33;;;;;;;;;;;;;;;31.82;nan;100713.59;4972129;28;19925;-85